Ogden, UT

6:10 AM MDT on September 02, 2014 (GMT -0600)
Harrisville 1411 | Change Station
CLOSE
Current Station
Personal Weather Station
Location: Ogden, UT
Elevation: 4310 ft
Nearby Weather Stations

Elev 4310 ft 41.26 °N, 111.98 °W | Updated 41 seconds ago

Clear
Clear
51.0 °F
Feels Like 51.0 °F
N
2.0
Wind Variable Wind from ESE
Gusts 2.0 mph

Today
High -- | Low -- °F
--% Chance of Precip.
Yesterday
High -- | Low -- °F
Precip. -- in
6:55 AM 7:59 PM
Waxing Crescent, 51% visible
Pressure 29.90 in
Visibility 10.0 miles
Clouds Clear
Dew Point 43 °F
Humidity 74%
Rainfall 0.00 in
Snow Depth 0 in , 2 in , 0 in
UV 0 out of 12
Pollen 7.50 out of 12
PM2.5 Good
Flu Activity Not available.
METAR KOGD 021153Z 00000KT 10SM CLR 12/02 A3003 RMK AO2 SLP124 T01220017 10167 20122 55000

More Conditions Fewer Conditions

Pressure 29.90 in
Visibility 10.0 miles
Clouds Clear
Dew Point 43 °F
Humidity 74%
Rainfall 0.00 in
Snow Depth 0 in , 2 in , 0 in
UV 0 out of 12
Pollen 7.50 out of 12
PM2.5 Good
Flu Activity Not available.
METAR KOGD 021153Z 00000KT 10SM CLR 12/02 A3003 RMK AO2 SLP124 T01220017 10167 20122 55000

More Conditions Fewer Conditions

10-Day Weather Forecast

Almanac

Astronomy

Sep. 02, 2014 Rise Set
Actual Time 6:55 AM MDT 7:59 PM MDT
Civil Twilight 6:27 AM MDT 8:27 PM MDT
Nautical Twilight 5:53 AM MDT 9:00 PM MDT
Astronomical Twilight 5:18 AM MDT 9:36 PM MDT
Moon 2:47 PM MDT 12:00 AM MDT
Length of Visible Light 14h 00m
Length of Day
13h 03m
Tomorrow will be 2m 39s shorter.
Waxing Crescent, 51% of the Moon is Illuminated
Today
Waxing Crescent
Sep 8
Full
Sep 15
Last Quarter
Sep 24
New
Oct 1
First Quarter

Today's Extremes

State Highs State Lows

Community

WunderPhotos

Upload Photos

1,749,638 photos uploaded!

WunderBlogs® & News

By Dr. Jeff Masters
Director of Meteorology, Weather Underground
By Kari Strenfel
Meteorologist, Weather Underground
By Christopher C. Burt
Weather Historian, Weather Underground
September 2, 2014
September 2, 2014
September 2, 2014

Nearby

Air Quality

  Air Quality AQ Index Pollutant
Yesterday Good
OZONE
Yesterday Good
PM10
Current Good
PM2.5
Tuesday Moderate
OZONE
Wednesday Moderate
OZONE

Snow Depth

Station Depth Elevation
Ben Lomond Peak 0 in 8000 ft
Ben Lomond Trail 2 in 6000 ft
Little Bear 0 in 6550 ft
Parrish Creek 0 in 7740 ft
Horse Ridge 0 in 8160 ft

Earthquake Activity

City Distance Mag. Time & Date
No recent earthquake activity has been reported nearby.
Minimum magnitude displayed is 2.5.

Coastal Water Temperatures

Place Temperature
No Stations Reporting

Nearby Weather Stations